createdAt,value
2023-03-11T00:00:48.840Z,98958.66
2023-03-11T00:03:29.183Z,98957.78
2023-03-11T00:06:01.485Z,98955.13
2023-03-11T00:08:29.498Z,98963.97
2023-03-11T00:11:00.733Z,98976.31
2023-03-11T00:13:29.671Z,98967.69
2023-03-11T00:15:58.074Z,98971.19
2023-03-11T00:18:28.212Z,98950.13
2023-03-11T00:20:58.578Z,98957.38
2023-03-11T00:23:27.286Z,98959.06
2023-03-11T00:25:56.092Z,98959.06
2023-03-11T00:28:26.221Z,98959.06
2023-03-11T00:30:54.834Z,98959.94
2023-03-11T00:33:23.477Z,98948.44
2023-03-11T00:35:52.072Z,98941.63
2023-03-11T00:38:21.436Z,98949.50
2023-03-11T00:40:50.252Z,98954.59
2023-03-11T00:43:18.418Z,98959.06
2023-03-11T00:45:46.814Z,98956.72
2023-03-11T00:48:15.452Z,98958.44
2023-03-11T00:50:43.937Z,98954.94
2023-03-11T00:53:12.501Z,98955.88
2023-03-11T00:55:41.970Z,98933.91
2023-03-11T00:58:13.291Z,98909.97
2023-03-11T01:00:45.653Z,98925.94
2023-03-11T01:03:13.783Z,98920.38
2023-03-11T01:05:42.219Z,98929.31
2023-03-11T01:08:10.527Z,98927.38
2023-03-11T01:10:39.273Z,98925.69
2023-03-11T01:13:07.397Z,98909.84
2023-03-11T01:15:37.497Z,98912.50
2023-03-11T01:18:06.460Z,98905.28
2023-03-11T01:20:37.920Z,98906.34
2023-03-11T01:23:07.242Z,98908.03
2023-03-11T01:25:36.256Z,98907.19
2023-03-11T01:28:05.034Z,98901.00
2023-03-11T01:30:33.463Z,98903.81
2023-03-11T01:33:02.320Z,98886.06
2023-03-11T01:35:31.775Z,98876.38
2023-03-11T01:38:00.296Z,98880.84
2023-03-11T01:40:36.180Z,98877.34
2023-03-11T01:43:37.311Z,98866.59
2023-03-11T01:46:20.857Z,98853.41
2023-03-11T01:48:52.030Z,98854.16
2023-03-11T01:51:29.414Z,98860.44
2023-03-11T01:54:01.581Z,98870.44
2023-03-11T01:56:30.750Z,98872.97
2023-03-11T01:58:59.770Z,98867.66
2023-03-11T02:01:28.619Z,98867.66
2023-03-11T02:03:58.227Z,98862.34
2023-03-11T02:06:26.867Z,98848.31
2023-03-11T02:08:56.250Z,98844.06
2023-03-11T02:11:27.864Z,98849.38
2023-03-11T02:14:00.133Z,98844.06
2023-03-11T02:16:28.986Z,98839.59
2023-03-11T02:19:00.917Z,98821.75
2023-03-11T02:21:31.697Z,98820.03
2023-03-11T02:24:08.841Z,98815.69
2023-03-11T02:26:59.266Z,98835.03
2023-03-11T02:29:29.649Z,98824.63
2023-03-11T02:32:01.438Z,98832.59
2023-03-11T02:34:32.148Z,98841.31
2023-03-11T02:37:05.107Z,98845.78
2023-03-11T02:39:35.808Z,98850.25
2023-03-11T02:42:12.873Z,98825.56
2023-03-11T02:44:43.322Z,98823.78
2023-03-11T02:47:12.055Z,98831.09
2023-03-11T02:49:40.757Z,98821.97
2023-03-11T02:52:09.212Z,98820.25
2023-03-11T02:54:37.324Z,98818.56
2023-03-11T02:57:05.927Z,98825.47
2023-03-11T02:59:34.466Z,98822.91
2023-03-11T03:02:04.014Z,98821.31
2023-03-11T03:04:33.178Z,98816.00
2023-03-11T03:07:02.183Z,98818.78
2023-03-11T03:09:30.454Z,98821.31
2023-03-11T03:11:58.908Z,98808.38
2023-03-11T03:14:27.125Z,98820.47
2023-03-11T03:16:55.787Z,98819.84
2023-03-11T03:19:24.084Z,98824.09
2023-03-11T03:21:52.802Z,98829.41
2023-03-11T03:24:22.791Z,98832.06
2023-03-11T03:26:52.502Z,98837.38
2023-03-11T03:29:20.721Z,98849.22
2023-03-11T03:31:51.119Z,98845.72
2023-03-11T03:34:19.294Z,98852.59
2023-03-11T03:36:47.825Z,98847.28
2023-03-11T03:39:16.284Z,98818.38
2023-03-11T03:41:44.683Z,98808.63
2023-03-11T03:44:13.737Z,98805.00
2023-03-11T03:46:42.304Z,98794.38
2023-03-11T03:49:11.285Z,98799.69
2023-03-11T03:51:40.825Z,98810.31
2023-03-11T03:54:19.134Z,98822.66
2023-03-11T03:56:47.589Z,98826.25
2023-03-11T03:59:15.964Z,98809.66
2023-03-11T04:01:50.791Z,98818.38
2023-03-11T04:04:20.549Z,98822.81
2023-03-11T04:06:49.559Z,98821.03
2023-03-11T04:09:20.079Z,98814.34
2023-03-11T04:11:48.741Z,98817.84
2023-03-11T04:14:18.579Z,98837.28
2023-03-11T04:16:54.854Z,98859.28
2023-03-11T04:19:22.970Z,98867.25
2023-03-11T04:21:52.369Z,98876.19
2023-03-11T04:24:22.398Z,98864.81
2023-03-11T04:26:51.517Z,98865.03
2023-03-11T04:29:20.149Z,98881.59
2023-03-11T04:31:52.312Z,98879.81
2023-03-11T04:34:20.867Z,98892.13
2023-03-11T04:36:52.815Z,98888.72
2023-03-11T04:39:22.744Z,98891.38
2023-03-11T04:41:52.297Z,98886.38
2023-03-11T04:44:24.091Z,98889.91
2023-03-11T04:46:53.005Z,98883.63
2023-03-11T04:49:21.381Z,98906.59
2023-03-11T04:51:51.751Z,98915.50
2023-03-11T04:54:23.081Z,98913.81
2023-03-11T04:56:51.677Z,98901.59
2023-03-11T04:59:20.686Z,98894.25
2023-03-11T05:01:50.503Z,98872.25
2023-03-11T05:04:19.029Z,98865.34
2023-03-11T05:06:51.032Z,98858.22
2023-03-11T05:09:19.542Z,98859.94
2023-03-11T05:11:48.242Z,98864.91
2023-03-11T05:14:19.487Z,98853.44
2023-03-11T05:16:48.463Z,98849.31
2023-03-11T05:19:31.996Z,98838.34
2023-03-11T05:22:04.644Z,98849.28
2023-03-11T05:24:32.814Z,98859.22
2023-03-11T05:27:02.302Z,98853.16
2023-03-11T05:29:32.481Z,98860.53
2023-03-11T05:32:00.996Z,98866.91
2023-03-11T05:34:29.061Z,98878.50
2023-03-11T05:36:57.543Z,98867.63
2023-03-11T05:39:25.733Z,98875.84
2023-03-11T05:41:56.636Z,98891.78
2023-03-11T05:44:25.657Z,98911.25
2023-03-11T05:46:54.662Z,98916.47
2023-03-11T05:49:23.368Z,98910.41
2023-03-11T05:51:58.054Z,98900.94
2023-03-11T05:54:27.855Z,98902.44
2023-03-11T05:56:56.834Z,98903.50
2023-03-11T05:59:26.012Z,98885.00
2023-03-11T06:01:59.062Z,98904.56
2023-03-11T06:04:27.541Z,98922.00
2023-03-11T06:06:56.245Z,98929.25
2023-03-11T06:09:27.187Z,98937.44
2023-03-11T06:11:55.965Z,98918.19
2023-03-11T06:14:31.710Z,98909.16
2023-03-11T06:17:02.472Z,98896.91
2023-03-11T06:19:30.591Z,98897.78
2023-03-11T06:21:59.212Z,98883.72
2023-03-11T06:24:27.422Z,98879.63
2023-03-11T06:26:55.853Z,98890.75
2023-03-11T06:29:26.923Z,98889.06
2023-03-11T06:31:56.483Z,98899.47
2023-03-11T06:34:24.604Z,98909.88
2023-03-11T06:36:54.984Z,98906.59
2023-03-11T06:39:23.212Z,98917.34
2023-03-11T06:41:53.341Z,98920.97
2023-03-11T06:44:21.815Z,98922.06
2023-03-11T06:46:50.359Z,98915.63
2023-03-11T06:49:19.502Z,98920.97
2023-03-11T06:51:48.372Z,98927.22
2023-03-11T06:54:17.340Z,98929.69
2023-03-11T06:56:46.817Z,98943.09
2023-03-11T06:59:15.998Z,98952.00
2023-03-11T07:01:46.042Z,98946.84
2023-03-11T07:04:15.133Z,98953.81
2023-03-11T07:06:44.543Z,98963.50
2023-03-11T07:09:17.905Z,98955.03
2023-03-11T07:11:48.017Z,98952.25
2023-03-11T07:14:23.404Z,98964.19
2023-03-11T07:16:55.860Z,98963.22
2023-03-11T07:19:42.715Z,98971.19
2023-03-11T07:22:11.069Z,98971.94
2023-03-11T07:24:39.164Z,98985.25
2023-03-11T07:27:07.727Z,98966.09
2023-03-11T07:29:35.755Z,98965.88
2023-03-11T07:32:06.883Z,98964.91
2023-03-11T07:34:35.829Z,98968.44
2023-03-11T07:37:04.793Z,98979.72
2023-03-11T07:39:33.152Z,98973.44
2023-03-11T07:42:01.677Z,98977.75
2023-03-11T07:44:36.563Z,98973.53
2023-03-11T07:47:06.352Z,98972.91
2023-03-11T07:49:36.194Z,98979.91
2023-03-11T07:52:04.913Z,98980.56
2023-03-11T07:54:32.995Z,98979.91
2023-03-11T07:57:01.583Z,98989.81
2023-03-11T07:59:29.963Z,98985.44
2023-03-11T08:01:58.638Z,98997.78
2023-03-11T08:04:26.820Z,98989.91
2023-03-11T08:06:55.543Z,98997.78
2023-03-11T08:09:23.603Z,98986.50
2023-03-11T08:11:52.175Z,98991.72
2023-03-11T08:14:20.418Z,99000.66
2023-03-11T08:16:49.013Z,99025.53
2023-03-11T08:19:17.255Z,99041.38
2023-03-11T08:21:45.683Z,99039.69
2023-03-11T08:24:14.375Z,99041.59
2023-03-11T08:26:43.534Z,99048.63
2023-03-11T08:29:11.733Z,99042.44
2023-03-11T08:31:40.408Z,99016.91
2023-03-11T08:34:10.832Z,98961.19
2023-03-11T08:36:39.908Z,99014.25
2023-03-11T08:39:08.259Z,99022.34
2023-03-11T08:41:36.964Z,99011.81
2023-03-11T08:44:05.720Z,99008.34
2023-03-11T08:46:37.537Z,99013.53
2023-03-11T08:49:06.676Z,99007.59
2023-03-11T08:51:36.249Z,99007.34
2023-03-11T08:54:05.126Z,99020.34
2023-03-11T08:56:33.915Z,99025.31
2023-03-11T08:59:02.470Z,99034.78
2023-03-11T09:01:31.318Z,99024.03
2023-03-11T09:03:59.702Z,99030.09
2023-03-11T09:06:30.703Z,99029.66
2023-03-11T09:08:58.825Z,99024.97
2023-03-11T09:11:27.249Z,99018.13
2023-03-11T09:13:55.274Z,99017.28
2023-03-11T09:16:24.169Z,99021.44
2023-03-11T09:18:52.413Z,99024.84
2023-03-11T09:21:21.264Z,99020.47
2023-03-11T09:23:49.361Z,99011.31
2023-03-11T09:26:17.992Z,99012.28
2023-03-11T09:28:49.573Z,99020.06
2023-03-11T09:31:19.043Z,99012.81
2023-03-11T09:33:47.618Z,99018.88
2023-03-11T09:36:18.197Z,99014.50
2023-03-11T09:38:46.516Z,99022.13
2023-03-11T09:41:17.714Z,99020.31
2023-03-11T09:44:13.519Z,99024.69
2023-03-11T09:47:12.465Z,99038.75
2023-03-11T09:49:52.583Z,99037.25
2023-03-11T09:52:39.630Z,99057.28
2023-03-11T09:55:21.523Z,99055.16
2023-03-11T09:57:50.934Z,99053.00
2023-03-11T10:00:21.281Z,99046.19
2023-03-11T10:02:50.408Z,99056.19
2023-03-11T10:05:28.920Z,99045.03
2023-03-11T10:08:04.729Z,99052.88
2023-03-11T10:10:40.563Z,99040.44
2023-03-11T10:13:26.088Z,99048.84
2023-03-11T10:15:59.949Z,99048.34
2023-03-11T10:19:00.300Z,99066.66
2023-03-11T10:21:40.495Z,99074.97
2023-03-11T10:24:32.294Z,99080.50
2023-03-11T10:27:04.285Z,99077.09
2023-03-11T10:30:05.088Z,99093.91
2023-03-11T10:32:41.523Z,99086.69
2023-03-11T10:35:23.897Z,99082.63
2023-03-11T10:38:00.140Z,99092.84
2023-03-11T10:40:32.177Z,99092.84
2023-03-11T10:43:06.506Z,99103.72
2023-03-11T10:45:41.632Z,99104.03
2023-03-11T10:48:14.706Z,99108.50
2023-03-11T10:50:46.737Z,99107.00
2023-03-11T10:53:16.839Z,99098.19
2023-03-11T10:55:51.050Z,99105.63
2023-03-11T10:58:22.730Z,99108.81
2023-03-11T11:01:18.079Z,99099.66
2023-03-11T11:03:50.380Z,99104.66
2023-03-11T11:06:30.699Z,99109.88
2023-03-11T11:09:04.868Z,99105.19
2023-03-11T11:11:36.085Z,99111.38
2023-03-11T11:14:04.121Z,99101.78
2023-03-11T11:16:34.669Z,99099.03
2023-03-11T11:19:13.808Z,99110.91
2023-03-11T11:21:52.623Z,99108.06
2023-03-11T11:24:30.290Z,99098.56
2023-03-11T11:27:23.226Z,99102.66
2023-03-11T11:30:09.325Z,99105.19
2023-03-11T11:32:38.341Z,99106.75
2023-03-11T11:35:17.266Z,99095.91
2023-03-11T11:38:00.572Z,99076.22
2023-03-11T11:40:31.306Z,99077.09
2023-03-11T11:43:04.097Z,99071.75
2023-03-11T11:45:37.379Z,99088.25
2023-03-11T11:48:12.829Z,99086.44
2023-03-11T11:50:46.447Z,99081.13
2023-03-11T11:53:17.624Z,99074.09
2023-03-11T11:55:49.972Z,99075.81
2023-03-11T11:58:19.266Z,99069.63
2023-03-11T12:01:09.055Z,99069.53
2023-03-11T12:03:55.752Z,99059.09
2023-03-11T12:06:35.167Z,99059.63
2023-03-11T12:09:14.938Z,99054.31
2023-03-11T12:11:51.885Z,99038.34
2023-03-11T12:14:44.549Z,99050.69
2023-03-11T12:17:13.929Z,99051.50
2023-03-11T12:20:14.676Z,99052.38
2023-03-11T12:23:05.349Z,99052.16
2023-03-11T12:25:36.705Z,99051.31
2023-03-11T12:28:09.486Z,99048.63
2023-03-11T12:30:44.054Z,99037.03
2023-03-11T12:33:20.146Z,99042.16
2023-03-11T12:35:57.357Z,99039.38
2023-03-11T12:38:33.262Z,99040.00
2023-03-11T12:41:11.336Z,99041.50
2023-03-11T12:43:41.946Z,99050.19
2023-03-11T12:46:13.289Z,99047.31
2023-03-11T12:48:46.109Z,99049.97
2023-03-11T12:51:26.533Z,99034.97
2023-03-11T12:53:55.970Z,99041.97
2023-03-11T12:56:36.037Z,99039.31
2023-03-11T12:59:34.299Z,99032.50
2023-03-11T13:02:24.814Z,99040.28
2023-03-11T13:05:31.921Z,99043.78
2023-03-11T13:08:04.515Z,99034.47
2023-03-11T13:10:42.662Z,99037.63
2023-03-11T13:13:43.423Z,99042.31
2023-03-11T13:16:14.449Z,99048.50
2023-03-11T13:18:48.233Z,99035.06
2023-03-11T13:21:28.468Z,99034.66
2023-03-11T13:24:22.263Z,99043.56
2023-03-11T13:26:59.876Z,99040.44
2023-03-11T13:29:52.229Z,99037.00
2023-03-11T13:32:53.791Z,99035.50
2023-03-11T13:35:29.165Z,99035.69
2023-03-11T13:38:21.242Z,99028.72
2023-03-11T13:40:49.978Z,99031.53
2023-03-11T13:43:26.043Z,99036.19
2023-03-11T13:46:28.274Z,99040.81
2023-03-11T13:49:05.214Z,99034.19
2023-03-11T13:51:44.272Z,99043.16
2023-03-11T13:54:20.311Z,99046.78
2023-03-11T13:56:54.187Z,99036.28
2023-03-11T13:59:33.844Z,99034.94
2023-03-11T14:02:17.219Z,99035.25
2023-03-11T14:04:50.518Z,99044.13
2023-03-11T14:07:29.343Z,99040.38
2023-03-11T14:10:12.552Z,99041.13
2023-03-11T14:12:41.089Z,99029.50
2023-03-11T14:15:10.124Z,99024.16
2023-03-11T14:17:38.637Z,99029.28
2023-03-11T14:20:23.934Z,99039.06
2023-03-11T14:22:55.108Z,99042.44
2023-03-11T14:25:26.117Z,99043.28
2023-03-11T14:27:56.617Z,99047.22
2023-03-11T14:30:29.100Z,99047.81
2023-03-11T14:33:06.807Z,99052.53
2023-03-11T14:35:35.012Z,99052.66
2023-03-11T14:38:03.468Z,99049.47
2023-03-11T14:40:34.509Z,99049.34
2023-03-11T14:43:06.810Z,99049.78
2023-03-11T14:45:37.634Z,99044.69
2023-03-11T14:48:27.491Z,99057.03
2023-03-11T14:50:58.273Z,99051.00
2023-03-11T14:53:42.015Z,99052.66
2023-03-11T14:56:21.982Z,99053.66
2023-03-11T14:59:12.687Z,99052.81
2023-03-11T15:01:42.732Z,99051.97
2023-03-11T15:04:14.024Z,99059.00
2023-03-11T15:06:44.071Z,99059.94
2023-03-11T15:09:16.212Z,99062.63
2023-03-11T15:11:57.822Z,99057.28
2023-03-11T15:14:32.029Z,99050.25
2023-03-11T15:17:17.502Z,99054.63
2023-03-11T15:19:56.078Z,99059.00
2023-03-11T15:22:47.577Z,99065.16
2023-03-11T15:25:18.446Z,99067.69
2023-03-11T15:27:46.922Z,99074.13
2023-03-11T15:30:27.837Z,99072.16
2023-03-11T15:32:56.871Z,99076.41
2023-03-11T15:35:27.662Z,99089.63
2023-03-11T15:38:23.792Z,99094.09
2023-03-11T15:40:59.176Z,99093.25
2023-03-11T15:43:28.478Z,99081.75
2023-03-11T15:45:58.327Z,99090.47
2023-03-11T15:48:29.320Z,99093.13
2023-03-11T15:50:59.577Z,99104.75
2023-03-11T15:53:28.933Z,99111.78
2023-03-11T15:56:06.925Z,99111.78
2023-03-11T15:58:38.320Z,99112.75
2023-03-11T16:01:07.560Z,99110.06
2023-03-11T16:03:35.840Z,99114.44
2023-03-11T16:06:04.541Z,99109.44
2023-03-11T16:08:33.096Z,99128.72
2023-03-11T16:11:01.900Z,99127.97
2023-03-11T16:13:30.063Z,99138.53
2023-03-11T16:15:58.446Z,99131.59
2023-03-11T16:18:26.811Z,99127.97
2023-03-11T16:20:55.696Z,99132.56
2023-03-11T16:23:28.195Z,99130.91
2023-03-11T16:26:04.302Z,99140.81
2023-03-11T16:28:32.417Z,99141.88
2023-03-11T16:31:01.002Z,99141.13
2023-03-11T16:33:29.296Z,99153.59
2023-03-11T16:35:58.115Z,99165.31
2023-03-11T16:38:26.269Z,99163.63
2023-03-11T16:40:59.811Z,99171.94
2023-03-11T16:43:29.551Z,99178.00
2023-03-11T16:45:58.248Z,99180.88
2023-03-11T16:48:26.442Z,99184.41
2023-03-11T16:50:54.880Z,99189.84
2023-03-11T16:53:25.593Z,99193.47
2023-03-11T16:55:54.675Z,99206.91
2023-03-11T16:58:23.196Z,99201.69
2023-03-11T17:00:51.806Z,99206.16
2023-03-11T17:03:21.855Z,99204.56
2023-03-11T17:05:50.985Z,99202.84
2023-03-11T17:08:19.227Z,99212.88
2023-03-11T17:10:47.949Z,99205.09
2023-03-11T17:13:18.906Z,99208.84
2023-03-11T17:15:58.372Z,99227.25
2023-03-11T17:18:26.993Z,99216.69
2023-03-11T17:20:55.443Z,99226.50
2023-03-11T17:23:23.540Z,99225.03
2023-03-11T17:25:52.065Z,99228.44
2023-03-11T17:28:20.313Z,99227.78
2023-03-11T17:30:49.029Z,99240.03
2023-03-11T17:33:17.167Z,99252.50
2023-03-11T17:35:47.255Z,99255.28
2023-03-11T17:38:16.644Z,99257.19
2023-03-11T17:40:45.518Z,99264.41
2023-03-11T17:43:13.750Z,99274.84
2023-03-11T17:45:42.774Z,99271.44
2023-03-11T17:48:11.164Z,99278.47
2023-03-11T17:50:39.959Z,99289.22
2023-03-11T17:53:08.215Z,99288.47
2023-03-11T17:55:40.119Z,99295.50
2023-03-11T17:58:09.031Z,99305.31
2023-03-11T18:00:38.139Z,99312.50
2023-03-11T18:03:06.519Z,99315.09
2023-03-11T18:05:37.824Z,99323.16
2023-03-11T18:08:06.013Z,99327.63
2023-03-11T18:10:34.839Z,99331.34
2023-03-11T18:13:03.320Z,99344.66
2023-03-11T18:15:31.789Z,99354.22
2023-03-11T18:17:59.978Z,99365.09
2023-03-11T18:20:28.388Z,99364.22
2023-03-11T18:22:56.566Z,99363.38
2023-03-11T18:25:25.008Z,99362.53
2023-03-11T18:27:53.123Z,99369.69
2023-03-11T18:30:21.733Z,99368.09
2023-03-11T18:32:49.969Z,99370.75
2023-03-11T18:35:18.976Z,99370.84
2023-03-11T18:37:47.204Z,99392.78
2023-03-11T18:40:15.758Z,99394.69
2023-03-11T18:42:43.910Z,99405.34
2023-03-11T18:45:12.837Z,99408.94
2023-03-11T18:47:40.987Z,99426.63
2023-03-11T18:50:10.344Z,99433.84
2023-03-11T18:52:38.709Z,99437.28
2023-03-11T18:55:07.783Z,99437.28
2023-03-11T18:57:36.044Z,99445.34
2023-03-11T19:00:05.275Z,99448.13
2023-03-11T19:02:33.724Z,99447.34
2023-03-11T19:05:02.718Z,99471.13
2023-03-11T19:07:31.040Z,99466.75
2023-03-11T19:09:59.576Z,99472.06
2023-03-11T19:12:29.757Z,99485.38
2023-03-11T19:14:58.484Z,99492.50
2023-03-11T19:17:26.768Z,99491.66
2023-03-11T19:19:55.462Z,99492.59
2023-03-11T19:22:23.643Z,99497.91
2023-03-11T19:24:54.082Z,99481.97
2023-03-11T19:27:22.220Z,99493.75
2023-03-11T19:29:50.686Z,99500.59
2023-03-11T19:32:18.996Z,99501.34
2023-03-11T19:34:48.199Z,99505.91
2023-03-11T19:37:17.721Z,99507.41
2023-03-11T19:39:46.165Z,99504.84
2023-03-11T19:42:14.377Z,99510.63
2023-03-11T19:44:42.828Z,99518.50
2023-03-11T19:47:11.188Z,99529.25
2023-03-11T19:49:39.740Z,99534.78
2023-03-11T19:52:10.079Z,99539.34
2023-03-11T19:54:38.697Z,99541.25
2023-03-11T19:57:07.087Z,99543.91
2023-03-11T19:59:35.614Z,99546.69
2023-03-11T20:02:06.054Z,99553.81
2023-03-11T20:04:34.774Z,99559.88
2023-03-11T20:07:03.294Z,99566.91
2023-03-11T20:09:34.783Z,99566.91
2023-03-11T20:12:03.151Z,99581.19
2023-03-11T20:14:31.765Z,99580.31
2023-03-11T20:17:00.038Z,99590.88
2023-03-11T20:19:28.812Z,99602.47
2023-03-11T20:21:57.090Z,99627.38
2023-03-11T20:24:25.869Z,99625.84
2023-03-11T20:26:54.093Z,99638.22
2023-03-11T20:29:22.718Z,99620.72
2023-03-11T20:31:51.479Z,99636.41
2023-03-11T20:34:19.947Z,99634.78
2023-03-11T20:36:48.711Z,99643.72
2023-03-11T20:39:17.429Z,99645.53
2023-03-11T20:41:45.665Z,99657.97
2023-03-11T20:44:14.405Z,99661.56
2023-03-11T20:46:42.738Z,99682.88
2023-03-11T20:49:11.487Z,99688.19
2023-03-11T20:51:41.810Z,99684.75
2023-03-11T20:54:12.368Z,99700.63
2023-03-11T20:56:41.235Z,99696.16
2023-03-11T20:59:14.165Z,99699.78
2023-03-11T21:01:42.924Z,99699.78
2023-03-11T21:04:12.078Z,99702.66
2023-03-11T21:06:41.394Z,99709.69
2023-03-11T21:09:14.867Z,99720.34
2023-03-11T21:11:43.183Z,99725.66
2023-03-11T21:14:15.698Z,99722.13
2023-03-11T21:16:45.573Z,99723.00
2023-03-11T21:19:14.933Z,99723.94
2023-03-11T21:21:43.500Z,99723.19
2023-03-11T21:24:12.885Z,99737.34
2023-03-11T21:26:41.345Z,99737.34
2023-03-11T21:29:11.850Z,99731.34
2023-03-11T21:31:40.053Z,99744.38
2023-03-11T21:34:10.924Z,99747.13
2023-03-11T21:36:39.865Z,99751.59
2023-03-11T21:39:08.718Z,99753.41
2023-03-11T21:41:37.137Z,99754.34
2023-03-11T21:44:05.776Z,99764.81
2023-03-11T21:46:34.234Z,99763.19
2023-03-11T21:49:02.938Z,99772.03
2023-03-11T21:51:31.261Z,99766.69
2023-03-11T21:53:59.760Z,99762.31
2023-03-11T21:56:28.815Z,99772.97
2023-03-11T21:58:57.602Z,99770.31
2023-03-11T22:01:25.863Z,99766.88
2023-03-11T22:03:55.480Z,99779.22
2023-03-11T22:06:24.504Z,99773.91
2023-03-11T22:08:53.441Z,99772.19
2023-03-11T22:11:21.731Z,99773.25
2023-03-11T22:13:51.749Z,99781.97
2023-03-11T22:16:21.054Z,99780.19
2023-03-11T22:18:50.120Z,99786.44
2023-03-11T22:21:20.915Z,99788.16
2023-03-11T22:23:49.511Z,99793.50
2023-03-11T22:26:18.018Z,99790.81
2023-03-11T22:28:46.778Z,99783.03
2023-03-11T22:31:17.614Z,99785.59
2023-03-11T22:33:46.321Z,99790.06
2023-03-11T22:36:14.836Z,99801.66
2023-03-11T22:38:46.520Z,99806.88
2023-03-11T22:41:17.251Z,99816.66
2023-03-11T22:43:47.338Z,99821.97
2023-03-11T22:46:15.824Z,99823.78
2023-03-11T22:48:44.292Z,99825.69
2023-03-11T22:51:13.139Z,99832.72
2023-03-11T22:53:41.526Z,99833.66
2023-03-11T22:56:12.947Z,99836.31
2023-03-11T22:58:42.010Z,99832.03
2023-03-11T23:01:11.253Z,99840.78
2023-03-11T23:03:40.301Z,99841.72
2023-03-11T23:06:09.814Z,99839.16
2023-03-11T23:08:38.383Z,99843.44
2023-03-11T23:11:09.607Z,99843.44
2023-03-11T23:13:39.807Z,99841.72
2023-03-11T23:16:14.397Z,99847.06
2023-03-11T23:18:44.312Z,99844.56
2023-03-11T23:21:25.146Z,99855.03
2023-03-11T23:23:54.274Z,99855.97
2023-03-11T23:26:22.986Z,99857.69
2023-03-11T23:28:51.929Z,99858.84
2023-03-11T23:31:21.923Z,99856.91
2023-03-11T23:33:50.757Z,99863.00
2023-03-11T23:36:20.675Z,99862.06
2023-03-11T23:38:52.486Z,99871.75
2023-03-11T23:41:22.015Z,99882.41
2023-03-11T23:43:51.030Z,99886.94
2023-03-11T23:46:19.541Z,99897.44
2023-03-11T23:48:48.077Z,99892.19
2023-03-11T23:51:16.319Z,99896.66
2023-03-11T23:53:44.827Z,99898.47
2023-03-11T23:56:18.014Z,99895.88
2023-03-11T23:58:47.099Z,99902.16
